Time;durP1;ratioP1;P1;durP2;ratioP2;P2;SDS_P1;SDS_P2;PMS_P1;PMS_P2;Temp;Humidity;BMP_temperature;BMP_pressure;BME280_temperature;BME280_humidity;BME280_pressure;Samples;Min_cycle;Max_cycle;Signal;HPM_P1;HPM_P2
2022/12/03 00:00:41;;;;;;;15.17;12.57;;;;;;;9.31;100.00;100358.25;5075587;28;20192;-71
2022/12/03 00:03:08;;;;;;;15.07;12.07;;;;;;;9.43;100.00;100364.03;5075440;28;20199;-70
2022/12/03 00:05:34;;;;;;;17.37;12.00;;;;;;;9.31;100.00;100374.16;5075224;28;20221;-71
2022/12/03 00:08:01;;;;;;;19.70;12.27;;;;;;;9.39;100.00;100366.19;5075310;28;20249;-71
2022/12/03 00:10:28;;;;;;;13.97;11.53;;;;;;;9.47;100.00;100376.81;5075106;28;20200;-72
2022/12/03 00:12:56;;;;;;;14.70;11.73;;;;;;;9.44;100.00;100360.41;5075185;28;20231;-72
2022/12/03 00:15:22;;;;;;;16.27;12.07;;;;;;;9.59;100.00;100380.75;5075380;28;20192;-72
2022/12/03 00:17:49;;;;;;;14.07;12.40;;;;;;;9.59;100.00;100375.47;5074882;28;20214;-72
2022/12/03 00:20:19;;;;;;;16.03;12.90;;;;;;;9.68;100.00;100384.25;5075890;28;20220;-72
2022/12/03 00:22:46;;;;;;;18.83;13.43;;;;;;;9.59;100.00;100379.94;5074774;28;20250;-72
2022/12/03 00:25:13;;;;;;;18.10;12.63;;;;;;;9.64;100.00;100388.22;5075198;28;20278;-72
2022/12/03 00:27:39;;;;;;;16.97;13.33;;;;;;;9.70;100.00;100387.53;5074774;28;20195;-71
2022/12/03 00:30:09;;;;;;;13.97;12.17;;;;;;;9.70;100.00;100403.47;5074940;28;20192;-70
2022/12/03 00:32:36;;;;;;;18.50;12.60;;;;;;;9.75;100.00;100398.47;5075256;28;20277;-69
2022/12/03 00:35:03;;;;;;;12.67;11.37;;;;;;;9.76;99.30;100392.19;5074554;28;20253;-69
2022/12/03 00:37:29;;;;;;;16.87;12.47;;;;;;;9.76;99.53;100408.09;5074973;28;20192;-69
2022/12/03 00:39:56;;;;;;;16.30;12.00;;;;;;;9.74;99.04;100405.63;5074474;28;20225;-69
2022/12/03 00:42:23;;;;;;;12.97;10.83;;;;;;;9.70;99.50;100404.31;5074541;28;20199;-69
2022/12/03 00:44:50;;;;;;;17.17;12.57;;;;;;;9.74;99.32;100404.78;5074394;28;20717;-69
2022/12/03 00:47:18;;;;;;;14.90;11.30;;;;;;;9.72;98.94;100402.28;5074743;28;20196;-69
2022/12/03 00:49:44;;;;;;;14.73;11.63;;;;;;;9.76;98.85;100405.47;5074349;28;20571;-69
2022/12/03 00:52:11;;;;;;;15.87;11.97;;;;;;;9.75;99.48;100412.56;5074734;28;20215;-69
2022/12/03 00:54:38;;;;;;;15.37;11.50;;;;;;;9.78;99.64;100411.41;5074227;28;20199;-69
2022/12/03 00:57:05;;;;;;;18.50;11.70;;;;;;;9.82;99.10;100415.38;5074624;28;20241;-70
2022/12/03 00:59:31;;;;;;;18.00;11.87;;;;;;;9.83;98.92;100419.69;5074079;28;20732;-69
2022/12/03 01:01:58;;;;;;;16.13;12.00;;;;;;;9.83;98.73;100411.72;5074340;28;20210;-69
2022/12/03 01:04:26;;;;;;;17.90;12.53;;;;;;;9.85;98.83;100409.75;5074615;28;20253;-69
2022/12/03 01:06:53;;;;;;;14.73;13.00;;;;;;;9.86;98.60;100414.03;5074652;28;20229;-69
2022/12/03 01:09:19;;;;;;;13.87;11.87;;;;;;;9.83;98.06;100419.69;5074027;28;20192;-69
2022/12/03 01:11:46;;;;;;;15.67;12.23;;;;;;;9.85;98.57;100412.41;5074544;28;20269;-71
2022/12/03 01:14:14;;;;;;;15.90;12.43;;;;;;;9.85;98.25;100413.22;5073896;28;20222;-71
2022/12/03 01:16:41;;;;;;;13.83;11.27;;;;;;;9.77;98.33;100415.06;5073986;28;20659;-71
2022/12/03 01:19:10;;;;;;;18.07;12.10;;;;;;;9.80;98.39;100420.03;5073977;28;20235;-71
2022/12/03 01:21:38;;;;;;;12.93;11.30;;;;;;;9.82;98.37;100424.19;5074124;28;20274;-71
2022/12/03 01:24:05;;;;;;;14.80;10.67;;;;;;;9.86;97.96;100429.97;5073978;28;20245;-70
2022/12/03 01:26:32;;;;;;;14.07;11.57;;;;;;;9.89;97.92;100430.44;5073707;28;20652;-71
2022/12/03 01:28:58;;;;;;;15.83;11.27;;;;;;;9.85;97.41;100423.81;5074841;28;20192;-71
2022/12/03 01:34:09;;;;;;;13.30;11.00;;;;;;;9.90;97.49;100425.97;5073637;28;20183;-71
2022/12/03 01:36:37;;;;;;;11.50;10.40;;;;;;;9.92;97.68;100434.59;5074056;28;20200;-71
2022/12/03 01:39:05;;;;;;;14.43;11.13;;;;;;;9.94;97.85;100433.44;5073362;28;20196;-70
2022/12/03 01:41:33;;;;;;;14.53;10.37;;;;;;;9.95;97.62;100434.25;5073729;28;20191;-71
2022/12/03 01:44:01;;;;;;;12.40;10.57;;;;;;;9.96;96.93;100436.75;5074262;28;20599;-70
2022/12/03 01:46:34;;;;;;;14.20;10.07;;;;;;;9.95;96.63;100439.56;5073347;28;20321;-72
2022/12/03 01:49:01;;;;;;;10.80;9.37;;;;;;;9.97;96.63;100440.25;5073277;28;20659;-70
2022/12/03 01:51:29;;;;;;;12.70;10.47;;;;;;;9.97;96.13;100442.91;5073495;28;20249;-71
2022/12/03 01:53:58;;;;;;;15.50;11.73;;;;;;;9.94;96.69;100437.91;5073721;28;20195;-70
2022/12/03 01:56:25;;;;;;;13.50;9.90;;;;;;;9.98;95.75;100444.53;5073354;28;20592;-70
2022/12/03 01:58:51;;;;;;;15.03;9.90;;;;;;;10.00;96.16;100445.19;5074100;28;20285;-70
2022/12/03 02:01:19;;;;;;;12.17;10.00;;;;;;;10.00;96.14;100447.84;5072977;28;20195;-70
2022/12/03 02:03:46;;;;;;;15.17;10.30;;;;;;;9.99;95.82;100448.84;5073054;28;20192;-69
2022/12/03 02:06:16;;;;;;;11.03;9.60;;;;;;;9.99;96.02;100451.50;5073101;28;20191;-70
2022/12/03 02:08:44;;;;;;;14.90;9.80;;;;;;;10.00;95.99;100447.84;5073066;28;20242;-69
2022/12/03 02:11:20;;;;;;;11.50;10.13;;;;;;;9.98;95.89;100449.84;5072686;28;20716;-69
2022/12/03 02:13:48;;;;;;;14.90;10.23;;;;;;;9.98;96.24;100449.84;5072778;28;20294;-69
2022/12/03 02:16:15;;;;;;;13.47;9.93;;;;;;;9.95;96.39;100445.72;5072889;28;20230;-70
2022/12/03 02:18:42;;;;;;;13.17;10.60;;;;;;;9.96;96.34;100451.81;5072426;28;20634;-69
2022/12/03 02:21:17;;;;;;;11.50;9.27;;;;;;;9.93;95.63;100452.19;5072928;28;20192;-70
2022/12/03 02:23:53;;;;;;;16.90;9.93;;;;;;;9.91;96.10;100452.34;5072575;28;20192;-70
2022/12/03 02:26:21;;;;;;;15.63;10.07;;;;;;;9.88;95.40;100454.50;5072828;28;20187;-70
2022/12/03 02:28:48;;;;;;;16.40;10.23;;;;;;;9.88;95.79;100465.09;5072558;28;20656;-70
2022/12/03 02:31:15;;;;;;;16.03;10.67;;;;;;;9.90;96.22;100461.31;5072286;28;20195;-70
2022/12/03 02:33:42;;;;;;;17.10;10.87;;;;;;;9.91;96.06;100459.47;5073206;28;20641;-70
2022/12/03 02:36:09;;;;;;;14.10;10.40;;;;;;;9.92;95.51;100467.28;5072213;28;20199;-70
2022/12/03 02:38:36;;;;;;;18.07;10.43;;;;;;;9.90;95.67;100452.53;5073453;28;20200;-69
2022/12/03 02:41:06;;;;;;;13.70;9.90;;;;;;;9.84;95.72;100450.53;5072265;28;20195;-70
2022/12/03 02:43:33;;;;;;;16.03;10.30;;;;;;;9.83;95.38;100451.53;5072572;28;20196;-70
2022/12/03 02:46:02;;;;;;;15.83;10.23;;;;;;;9.84;95.48;100458.47;5072523;28;20253;-70
2022/12/03 02:48:32;;;;;;;14.43;9.83;;;;;;;9.83;95.77;100467.44;5072345;28;20608;-70
2022/12/03 02:51:02;;;;;;;12.33;9.23;;;;;;;9.80;95.95;100460.66;5072173;28;20648;-69
2022/12/03 02:53:33;;;;;;;13.40;10.43;;;;;;;9.83;95.84;100464.78;5072350;28;20219;-69
2022/12/03 02:56:02;;;;;;;14.63;10.33;;;;;;;9.84;96.18;100463.78;5072110;28;20192;-70
2022/12/03 02:58:31;;;;;;;16.67;9.93;;;;;;;9.82;96.17;100447.22;5072117;28;20229;-70
2022/12/03 03:01:02;;;;;;;16.43;9.87;;;;;;;9.77;95.84;100441.59;5071957;28;20196;-70
2022/12/03 03:03:30;;;;;;;12.27;9.77;;;;;;;9.62;95.70;100448.56;5072786;28;20238;-71
2022/12/03 03:05:58;;;;;;;17.70;9.60;;;;;;;9.62;96.44;100451.22;5071931;28;20254;-71
2022/12/03 03:08:26;;;;;;;21.50;11.27;;;;;;;9.56;96.19;100449.25;5071858;28;20242;-71
2022/12/03 03:10:54;;;;;;;16.07;11.13;;;;;;;9.56;96.55;100443.94;5071854;28;20221;-71
2022/12/03 03:13:21;;;;;;;21.33;12.33;;;;;;;9.54;96.39;100443.25;5072084;28;20251;-71
2022/12/03 03:15:48;;;;;;;37.33;13.67;;;;;;;9.50;96.04;100449.88;5072191;28;20187;-69
2022/12/03 03:18:17;;;;;;;27.60;13.63;;;;;;;9.31;96.96;100445.75;5071902;28;20196;-70
2022/12/03 03:20:45;;;;;;;34.57;13.63;;;;;;;9.37;96.89;100450.41;5072147;28;20239;-70
2022/12/03 03:23:15;;;;;;;33.80;14.33;;;;;;;9.30;97.71;100456.50;5071698;28;20226;-70
2022/12/03 03:25:44;;;;;;;31.17;13.80;;;;;;;9.19;97.72;100452.34;5072001;28;20196;-70
2022/12/03 03:28:12;;;;;;;30.73;13.17;;;;;;;9.26;97.87;100452.53;5072662;28;20196;-71
2022/12/03 03:30:40;;;;;;;36.73;14.80;;;;;;;9.14;98.91;100454.66;5072170;28;20196;-71
2022/12/03 03:33:08;;;;;;;38.33;14.80;;;;;;;9.18;98.83;100455.16;5071648;28;20277;-70
2022/12/03 03:35:37;;;;;;;46.70;15.90;;;;;;;9.08;98.73;100441.25;5071923;28;20196;-71
2022/12/03 03:38:05;;;;;;;35.70;14.23;;;;;;;9.24;98.62;100454.53;5071600;28;20656;-71
2022/12/03 03:40:32;;;;;;;36.93;15.23;;;;;;;9.21;99.02;100460.97;5071530;28;20246;-72
2022/12/03 03:43:00;;;;;;;38.13;14.60;;;;;;;9.25;98.24;100469.44;5072240;28;20196;-71
2022/12/03 03:45:27;;;;;;;42.77;14.13;;;;;;;9.27;98.83;100464.81;5071499;28;20195;-71
2022/12/03 03:47:54;;;;;;;40.87;14.33;;;;;;;9.18;98.92;100471.91;5071553;28;20192;-71
2022/12/03 03:50:21;;;;;;;43.70;14.83;;;;;;;8.97;99.24;100468.03;5071445;28;20228;-71
2022/12/03 03:52:49;;;;;;;48.20;15.87;;;;;;;9.07;99.82;100468.75;5072263;28;20223;-71
2022/12/03 03:55:17;;;;;;;48.37;16.33;;;;;;;9.12;98.97;100479.69;5071641;28;20648;-71
2022/12/03 03:57:44;;;;;;;54.40;17.23;;;;;;;8.81;100.00;100473.28;5072574;28;20199;-71
2022/12/03 04:00:12;;;;;;;50.23;16.83;;;;;;;8.88;100.00;100476.97;5071358;28;20656;-71
2022/12/03 04:02:40;;;;;;;46.40;16.27;;;;;;;8.98;100.00;100480.28;5072029;28;20196;-71
2022/12/03 04:05:11;;;;;;;47.40;17.77;;;;;;;8.86;100.00;100478.97;5071434;28;20656;-70
2022/12/03 04:07:38;;;;;;;47.53;17.40;;;;;;;8.86;100.00;100487.72;5071314;28;20614;-70
2022/12/03 04:12:54;;;;;;;56.70;19.00;;;;;;;8.84;100.00;100483.56;5072336;28;20253;-71
2022/12/03 04:13:01;;;;;;;51.40;18.13;;;;;;;8.84;100.00;100488.88;5071525;28;20606;-70
2022/12/03 04:15:28;;;;;;;49.93;19.17;;;;;;;8.78;100.00;100484.22;5071539;28;20199;-71
2022/12/03 04:20:40;;;;;;;49.97;18.87;;;;;;;8.84;100.00;100491.53;5071178;28;20425;-71
2022/12/03 04:23:06;;;;;;;53.10;18.77;;;;;;;8.92;100.00;100481.78;5071207;28;20621;-70
2022/12/03 04:35:41;;;;;;;56.23;19.93;;;;;;;8.86;100.00;100497.50;5074927;28;20190;-71
2022/12/03 04:36:33;;;;;;;71.60;22.33;;;;;;;8.69;100.00;100509.00;5075017;28;20176;-71
2022/12/03 04:38:59;;;;;;;65.83;20.73;;;;;;;8.80;100.00;100511.38;5074943;28;20192;-71
2022/12/03 04:41:27;;;;;;;65.63;21.47;;;;;;;8.90;100.00;100514.75;5074636;28;20196;-70
2022/12/03 04:46:38;;;;;;;71.60;21.57;;;;;;;8.96;100.00;100500.84;5074815;28;20183;-71
2022/12/03 04:49:04;;;;;;;75.43;23.27;;;;;;;8.95;100.00;100497.34;5074788;28;20188;-70
2022/12/03 04:51:31;;;;;;;83.60;25.00;;;;;;;8.92;100.00;100496.84;5074314;28;20250;-71
2022/12/03 04:53:58;;;;;;;78.47;24.63;;;;;;;8.95;100.00;100501.84;5074214;28;20772;-70
2022/12/03 04:56:24;;;;;;;88.77;25.37;;;;;;;8.96;100.00;100496.38;5074448;28;20257;-70
2022/12/03 04:58:53;;;;;;;81.37;25.27;;;;;;;9.01;100.00;100506.47;5074285;28;20195;-70
2022/12/03 05:01:19;;;;;;;91.27;25.80;;;;;;;8.90;100.00;100493.56;5074403;28;20188;-71
2022/12/03 05:03:46;;;;;;;82.50;26.37;;;;;;;8.89;100.00;100500.66;5075311;28;20199;-70
2022/12/03 05:06:13;;;;;;;89.83;28.13;;;;;;;8.95;100.00;100507.94;5075373;28;20192;-70
2022/12/03 05:08:39;;;;;;;87.07;28.93;;;;;;;9.01;100.00;100498.53;5074402;28;20187;-70
2022/12/03 05:11:06;;;;;;;87.87;27.03;;;;;;;8.99;100.00;100498.69;5073933;28;20204;-70
2022/12/03 05:13:33;;;;;;;89.00;27.10;;;;;;;8.91;100.00;100505.78;5074321;28;20219;-70
2022/12/03 05:16:01;;;;;;;81.53;28.27;;;;;;;8.92;100.00;100507.44;5073891;28;20225;-70
2022/12/03 05:18:28;;;;;;;93.20;26.57;;;;;;;8.80;100.00;100514.03;5074197;28;20253;-70
2022/12/03 05:20:55;;;;;;;98.93;28.50;;;;;;;8.80;100.00;100514.88;5074538;28;20280;-70
2022/12/03 05:23:22;;;;;;;94.80;30.53;;;;;;;8.78;100.00;100523.97;5073707;28;20546;-70
2022/12/03 05:25:48;;;;;;;92.13;31.40;;;;;;;8.85;100.00;100532.91;5074334;28;20240;-70
2022/12/03 05:28:15;;;;;;;90.17;29.30;;;;;;;8.92;100.00;100534.78;5074270;28;20192;-70
2022/12/03 05:30:42;;;;;;;102.80;31.77;;;;;;;9.01;100.00;100532.97;5074114;28;20253;-69
2022/12/03 05:33:10;;;;;;;91.43;29.90;;;;;;;9.10;100.00;100537.31;5074056;28;20215;-70
2022/12/03 05:35:37;;;;;;;104.23;30.83;;;;;;;8.95;100.00;100528.34;5074098;28;20224;-70
2022/12/03 05:38:04;;;;;;;118.03;31.57;;;;;;;8.75;100.00;100532.22;5073671;28;20249;-70
2022/12/03 05:40:31;;;;;;;118.53;32.80;;;;;;;8.82;100.00;100538.56;5074558;28;20242;-71
2022/12/03 05:42:56;;;;;;;118.33;30.43;;;;;;;8.91;100.00;100542.88;5073642;28;20192;-71
2022/12/03 05:45:24;;;;;;;123.03;32.03;;;;;;;8.98;100.00;100539.44;5073865;28;20257;-70
2022/12/03 05:47:52;;;;;;;100.93;25.13;;;;;;;8.98;100.00;100534.13;5073478;28;20196;-70
2022/12/03 05:50:21;;;;;;;95.80;25.20;;;;;;;9.00;100.00;100532.16;5073696;28;20192;-72
2022/12/03 05:52:48;;;;;;;91.13;24.03;;;;;;;8.94;100.00;100537.28;5073559;28;20195;-69
2022/12/03 05:55:15;;;;;;;86.03;22.00;;;;;;;8.99;100.00;100545.56;5073126;28;20202;-69
2022/12/03 05:57:41;;;;;;;75.97;20.53;;;;;;;9.02;100.00;100545.22;5073042;28;20241;-70
2022/12/03 06:00:13;;;;;;;70.70;19.77;;;;;;;9.05;100.00;100544.91;5073410;28;20229;-69
2022/12/03 06:02:40;;;;;;;73.00;20.47;;;;;;;8.98;100.00;100544.72;5073108;28;20678;-68
2022/12/03 06:05:07;;;;;;;62.60;18.77;;;;;;;9.00;100.00;100553.38;5073516;28;20257;-68
2022/12/03 06:07:35;;;;;;;64.40;18.30;;;;;;;9.05;100.00;100556.34;5073207;28;20191;-68
2022/12/03 06:10:02;;;;;;;65.83;16.67;;;;;;;9.15;100.00;100564.19;5072741;28;20667;-63
2022/12/03 06:12:28;;;;;;;56.27;19.07;;;;;;;9.17;100.00;100567.50;5072621;28;20253;-63
2022/12/03 06:14:55;;;;;;;58.43;19.67;;;;;;;9.20;100.00;100575.13;5072614;28;20766;-63
2022/12/03 06:17:22;;;;;;;61.73;17.10;;;;;;;9.26;100.00;100569.16;5073165;28;20195;-63
2022/12/03 06:19:48;;;;;;;67.20;19.10;;;;;;;9.19;100.00;100568.19;5072899;28;20277;-63
2022/12/03 06:22:15;;;;;;;50.30;18.07;;;;;;;9.28;100.00;100568.00;5072829;28;20257;-63
2022/12/03 06:24:43;;;;;;;53.10;17.07;;;;;;;9.34;99.73;100566.53;5073017;28;20192;-63
2022/12/03 06:27:10;;;;;;;47.00;16.47;;;;;;;9.38;99.42;100568.72;5072682;28;20249;-66
2022/12/03 06:29:37;;;;;;;52.63;16.97;;;;;;;9.42;99.63;100569.22;5073094;28;20192;-67
2022/12/03 06:32:04;;;;;;;55.73;16.77;;;;;;;9.44;98.81;100573.34;5073311;28;20253;-67
2022/12/03 06:34:32;;;;;;;50.23;16.27;;;;;;;9.34;98.60;100555.94;5072280;28;20657;-67
2022/12/03 06:36:58;;;;;;;49.80;15.83;;;;;;;9.47;98.18;100577.50;5073269;28;20290;-67
2022/12/03 06:39:25;;;;;;;45.73;15.10;;;;;;;9.43;97.86;100577.00;5072235;28;20245;-66
2022/12/03 06:41:53;;;;;;;50.93;15.00;;;;;;;9.36;98.69;100583.13;5072390;28;20191;-66
2022/12/03 06:44:20;;;;;;;42.90;15.50;;;;;;;9.44;98.34;100577.84;5072203;28;20329;-65
2022/12/03 06:46:47;;;;;;;39.37;14.57;;;;;;;9.44;98.13;100577.84;5072523;28;20200;-67
2022/12/03 06:49:14;;;;;;;40.57;13.60;;;;;;;9.48;98.70;100584.50;5072469;28;20218;-67
2022/12/03 06:51:41;;;;;;;34.30;13.60;;;;;;;9.50;98.34;100588.63;5072195;28;20586;-68
2022/12/03 06:54:08;;;;;;;38.37;13.70;;;;;;;9.51;98.72;100573.53;5071924;28;20652;-68
2022/12/03 06:56:35;;;;;;;31.47;12.67;;;;;;;9.58;98.11;100590.47;5073105;28;20188;-67
2022/12/03 06:59:03;;;;;;;33.17;12.60;;;;;;;9.50;97.54;100587.78;5071673;28;20200;-68
2022/12/03 07:01:29;;;;;;;33.80;12.57;;;;;;;9.48;97.41;100587.16;5071549;28;20660;-66
2022/12/03 07:03:57;;;;;;;36.10;13.00;;;;;;;9.36;97.32;100594.56;5072031;28;20196;-65
2022/12/03 07:06:24;;;;;;;33.13;13.57;;;;;;;9.42;97.99;100595.72;5071622;28;20620;-67
2022/12/03 07:08:51;;;;;;;32.63;12.97;;;;;;;9.47;98.03;100588.13;5071579;28;20252;-66
2022/12/03 07:14:07;;;;;;;42.90;14.33;;;;;;;9.49;97.57;100587.00;5068285;28;20219;-67
2022/12/03 07:16:34;;;;;;;33.17;14.60;;;;;;;9.53;97.59;100593.63;5071644;28;20758;-67
2022/12/03 07:19:01;;;;;;;49.57;15.50;;;;;;;9.62;98.06;100591.81;5071883;28;20231;-66
2022/12/03 07:21:27;;;;;;;32.47;13.47;;;;;;;9.66;97.47;100593.13;5072101;28;20188;-66
2022/12/03 07:23:54;;;;;;;34.33;14.37;;;;;;;9.64;96.88;100580.03;5071562;28;20713;-66
2022/12/03 07:26:21;;;;;;;40.20;15.30;;;;;;;9.77;97.06;100590.19;5072021;28;20605;-66
2022/12/03 07:28:48;;;;;;;100.93;34.17;;;;;;;9.75;96.51;100592.16;5072025;28;20192;-65
2022/12/03 07:31:16;;;;;;;63.70;23.90;;;;;;;9.78;96.79;100599.78;5071487;28;20191;-66
2022/12/03 07:33:42;;;;;;;36.23;15.30;;;;;;;9.82;96.71;100603.78;5070831;28;20215;-66
2022/12/03 07:36:10;;;;;;;48.67;17.00;;;;;;;9.67;95.61;100584.19;5071416;28;20192;-66
2022/12/03 07:38:37;;;;;;;64.43;21.60;;;;;;;9.66;95.92;100606.41;5071961;28;20269;-65
2022/12/03 07:41:03;;;;;;;49.53;18.10;;;;;;;9.65;96.41;100602.91;5071590;28;20253;-66
2022/12/03 07:43:30;;;;;;;43.87;19.80;;;;;;;9.74;97.11;100607.25;5071406;28;20196;-67
2022/12/03 07:45:57;;;;;;;44.03;14.10;;;;;;;9.52;95.95;100599.91;5072711;28;20253;-68
2022/12/03 07:48:25;;;;;;;37.73;17.67;;;;;;;9.47;97.08;100609.31;5071280;28;20192;-67
2022/12/03 07:50:52;;;;;;;37.00;13.83;;;;;;;9.47;96.98;100604.03;5072053;28;20257;-68
2022/12/03 07:53:18;;;;;;;29.17;14.60;;;;;;;9.53;97.57;100614.00;5071535;28;20191;-67
2022/12/03 07:55:45;;;;;;;28.13;13.37;;;;;;;9.59;97.55;100608.03;5072108;28;20213;-67
2022/12/03 07:58:12;;;;;;;30.00;14.70;;;;;;;9.66;97.80;100596.63;5071316;28;20249;-65
2022/12/03 08:00:38;;;;;;;27.43;13.97;;;;;;;9.77;95.94;100600.78;5071420;28;20737;-67
2022/12/03 08:03:05;;;;;;;35.77;20.30;;;;;;;9.81;96.25;100602.13;5074035;28;20253;-68
2022/12/03 08:05:33;;;;;;;25.47;14.70;;;;;;;9.88;96.72;100603.09;5072859;28;20203;-69
2022/12/03 08:08:00;;;;;;;26.40;15.03;;;;;;;9.80;95.91;100605.78;5072989;28;20196;-65
2022/12/03 08:10:26;;;;;;;31.07;17.27;;;;;;;9.82;95.59;100609.09;5075130;28;20200;-65
2022/12/03 08:12:55;;;;;;;29.50;15.90;;;;;;;9.86;95.67;100605.94;5076404;28;20196;-66
2022/12/03 08:15:23;;;;;;;33.47;17.37;;;;;;;9.95;95.93;100604.13;5074529;28;20703;-66
2022/12/03 08:17:55;;;;;;;27.03;13.97;;;;;;;10.04;95.53;100608.44;5074760;28;20215;-65
2022/12/03 08:20:24;;;;;;;34.03;19.13;;;;;;;10.15;95.90;100610.78;5074575;28;20235;-65
2022/12/03 08:22:53;;;;;;;31.70;18.43;;;;;;;10.03;94.68;100609.44;5075378;28;20245;-65
2022/12/03 08:25:23;;;;;;;26.30;17.47;;;;;;;10.17;94.79;100614.13;5074513;28;20200;-65
2022/12/03 08:27:51;;;;;;;31.37;19.60;;;;;;;10.18;94.03;100605.97;5074188;28;20200;-64
2022/12/03 08:30:18;;;;;;;25.83;17.13;;;;;;;10.30;94.64;100599.31;5074879;28;20192;-65
2022/12/03 08:32:46;;;;;;;28.90;16.37;;;;;;;10.38;94.11;100606.47;5074345;28;20214;-67
2022/12/03 08:35:14;;;;;;;32.33;16.57;;;;;;;10.43;93.93;100601.50;5074688;28;20219;-66
2022/12/03 08:37:41;;;;;;;29.80;15.53;;;;;;;10.53;94.24;100605.63;5074935;28;20228;-66
2022/12/03 08:40:24;;;;;;;29.53;19.13;;;;;;;10.63;93.29;100611.56;5074313;28;20666;-65
2022/12/03 08:42:50;;;;;;;25.77;14.00;;;;;;;10.54;92.66;100615.25;5074843;28;20249;-68
2022/12/03 08:45:41;;;;;;;18.57;13.70;;;;;;;10.66;93.06;100615.75;5074867;28;20731;-69
2022/12/03 08:48:31;;;;;;;23.77;14.17;;;;;;;10.78;92.43;100623.16;5075263;28;20270;-68
2022/12/03 08:51:00;;;;;;;36.77;15.23;;;;;;;10.83;91.67;100617.34;5074943;28;20632;-68
2022/12/03 08:53:38;;;;;;;36.03;20.97;;;;;;;10.88;91.46;100612.34;5074318;28;20200;-69
2022/12/03 08:56:19;;;;;;;22.90;14.97;;;;;;;10.84;90.50;100613.69;5074221;28;20184;-68
2022/12/03 08:58:47;;;;;;;25.23;14.90;;;;;;;10.90;91.27;100608.53;5074300;28;20188;-70
2022/12/03 09:01:41;;;;;;;21.10;14.43;;;;;;;10.93;91.12;100613.50;5075251;28;20191;-69
2022/12/03 09:04:21;;;;;;;18.50;13.53;;;;;;;10.94;90.99;100601.03;5074006;28;20194;-68
2022/12/03 09:06:48;;;;;;;20.63;14.57;;;;;;;10.98;90.83;100602.34;5074832;28;20188;-69
2022/12/03 09:09:15;;;;;;;21.80;14.03;;;;;;;10.91;90.39;100607.50;5074161;28;20192;-68
2022/12/03 09:11:43;;;;;;;23.23;15.03;;;;;;;10.90;90.66;100597.06;5073981;28;20242;-67
2022/12/03 09:14:11;;;;;;;16.60;14.23;;;;;;;10.93;91.03;100600.22;5073600;28;20246;-69
2022/12/03 09:16:37;;;;;;;20.23;14.30;;;;;;;11.02;91.27;100595.69;5073655;28;20188;-69
2022/12/03 09:19:05;;;;;;;21.80;14.07;;;;;;;11.11;90.90;100594.63;5073266;28;20228;-68
2022/12/03 09:21:31;;;;;;;26.13;14.93;;;;;;;11.18;90.27;100592.97;5074305;28;20276;-69
2022/12/03 09:23:58;;;;;;;16.50;14.70;;;;;;;11.12;89.26;100591.00;5074025;28;20200;-68
2022/12/03 09:26:25;;;;;;;27.13;14.33;;;;;;;11.13;89.75;100591.81;5073579;28;20664;-68
2022/12/03 09:28:54;;;;;;;20.10;13.90;;;;;;;11.16;90.09;100588.81;5073970;28;20274;-69
2022/12/03 09:31:20;;;;;;;16.23;13.13;;;;;;;11.13;90.19;100592.66;5073355;28;20630;-71
2022/12/03 09:33:47;;;;;;;21.47;13.70;;;;;;;11.20;89.95;100598.94;5073618;28;20194;-78
2022/12/03 09:36:14;;;;;;;23.30;17.17;;;;;;;11.24;89.47;100589.63;5073611;28;20197;-84
2022/12/03 09:38:41;;;;;;;17.67;14.17;;;;;;;11.23;88.65;100581.81;5073296;28;20196;-84
2022/12/03 09:41:09;;;;;;;15.90;12.90;;;;;;;11.29;90.16;100575.78;5073371;28;20211;-71
2022/12/03 09:43:35;;;;;;;14.63;12.23;;;;;;;11.38;89.50;100580.88;5072384;28;20657;-78
2022/12/03 09:46:04;;;;;;;16.40;12.33;;;;;;;11.46;89.52;100580.00;5073588;28;20196;-77
2022/12/03 09:48:31;;;;;;;19.03;12.13;;;;;;;11.35;88.38;100581.22;5074121;28;20200;-76
2022/12/03 09:50:57;;;;;;;21.97;13.83;;;;;;;11.33;89.00;100577.09;5073185;28;20246;-77
2022/12/03 09:53:26;;;;;;;17.53;12.23;;;;;;;11.29;89.06;100576.63;5073238;28;20204;-75
2022/12/03 09:55:53;;;;;;;15.53;8.60;;;;;;;11.44;95.49;100569.56;5072833;28;20696;-74
2022/12/03 09:58:21;;;;;;;17.20;11.30;;;;;;;11.57;90.50;100568.97;5072645;28;20197;-74
2022/12/03 10:00:50;;;;;;;15.97;11.30;;;;;;;11.60;88.60;100576.63;5072506;28;20275;-75
2022/12/03 10:03:20;;;;;;;15.57;10.73;;;;;;;11.63;88.99;100574.44;5073217;28;20197;-73
2022/12/03 10:05:47;;;;;;;19.10;10.77;;;;;;;11.69;87.97;100575.59;5072818;28;20644;-75
2022/12/03 10:08:20;;;;;;;18.40;11.33;;;;;;;11.65;87.44;100575.13;5073327;28;20630;-77
2022/12/03 10:10:49;;;;;;;12.77;10.47;;;;;;;11.65;86.91;100572.47;5073242;28;20189;-71
2022/12/03 10:13:23;;;;;;;14.67;9.67;;;;;;;11.63;86.96;100576.31;5073009;28;20198;-70
2022/12/03 10:15:50;;;;;;;16.47;10.07;;;;;;;11.49;86.65;100572.53;5073047;28;20215;-71
2022/12/03 10:18:20;;;;;;;12.73;10.60;;;;;;;11.40;87.79;100573.59;5072630;28;20619;-70
2022/12/03 10:20:48;;;;;;;26.43;11.50;;;;;;;11.43;88.14;100567.88;5073206;28;20228;-71
2022/12/03 10:23:22;;;;;;;21.13;12.10;;;;;;;11.45;88.33;100562.41;5072577;28;20729;-72
2022/12/03 10:25:51;;;;;;;26.40;12.20;;;;;;;11.44;88.22;100552.75;5071641;28;20226;-70
2022/12/03 10:28:29;;;;;;;23.23;13.83;;;;;;;11.40;87.72;100557.63;5072898;28;20308;-71
2022/12/03 10:30:57;;;;;;;21.17;12.63;;;;;;;11.39;87.54;100547.16;5072223;28;20231;-72
2022/12/03 10:33:30;;;;;;;24.83;13.97;;;;;;;11.49;88.13;100543.25;5072945;28;20247;-71
2022/12/03 10:35:57;;;;;;;28.40;13.30;;;;;;;11.53;87.76;100541.91;5073057;28;20666;-71
2022/12/03 10:38:24;;;;;;;27.97;12.30;;;;;;;11.61;87.77;100555.19;5072211;28;20281;-72
2022/12/03 10:40:51;;;;;;;23.30;12.40;;;;;;;11.66;87.51;100547.50;5072619;28;20207;-73
2022/12/03 10:43:23;;;;;;;27.03;13.10;;;;;;;11.55;86.89;100550.53;5070899;28;20193;-70
2022/12/03 10:45:50;;;;;;;24.30;11.93;;;;;;;11.52;86.90;100537.59;5072188;28;20214;-70
2022/12/03 10:48:18;;;;;;;30.13;11.03;;;;;;;11.54;87.74;100543.56;5072359;28;20251;-70
2022/12/03 10:50:52;;;;;;;23.53;12.23;;;;;;;11.59;87.77;100545.69;5072252;28;20224;-71
2022/12/03 10:53:21;;;;;;;20.87;10.37;;;;;;;11.60;87.65;100540.19;5072552;28;20630;-71
2022/12/03 10:55:50;;;;;;;27.73;13.30;;;;;;;11.61;87.72;100546.38;5072778;28;20220;-72
2022/12/03 10:58:21;;;;;;;26.27;12.77;;;;;;;11.42;87.28;100538.78;5071969;28;20283;-72
2022/12/03 11:00:50;;;;;;;46.50;14.80;;;;;;;11.24;88.19;100551.53;5072670;28;20192;-73
2022/12/03 11:03:18;;;;;;;36.27;14.77;;;;;;;11.18;88.83;100547.75;5072231;28;20196;-73
2022/12/03 11:05:45;;;;;;;25.77;12.90;;;;;;;10.96;89.62;100552.00;5071547;28;20214;-72
2022/12/03 11:08:18;;;;;;;24.87;12.03;;;;;;;11.10;90.09;100546.97;5071796;28;20195;-73
2022/12/03 11:10:45;;;;;;;31.00;14.37;;;;;;;11.10;89.03;100547.78;5072672;28;20241;-70
2022/12/03 11:13:45;;;;;;;26.27;12.40;;;;;;;11.14;88.99;100545.63;5071824;28;20619;-72
2022/12/03 11:16:13;;;;;;;35.67;13.63;;;;;;;11.08;89.27;100545.28;5072046;28;20305;-74
2022/12/03 11:19:01;;;;;;;35.63;15.13;;;;;;;11.00;89.23;100540.00;5072237;28;20188;-73
2022/12/03 11:21:28;;;;;;;30.17;13.73;;;;;;;11.06;89.11;100538.50;5072294;28;20200;-72
2022/12/03 11:24:22;;;;;;;31.47;15.93;;;;;;;11.11;89.64;100541.47;5071749;28;20196;-72
2022/12/03 11:27:16;;;;;;;27.73;15.03;;;;;;;11.10;89.59;100539.81;5069727;28;20196;-73
2022/12/03 11:30:09;;;;;;;32.67;15.90;;;;;;;11.19;89.14;100538.75;5072181;28;20274;-72
2022/12/03 11:33:19;;;;;;;36.97;16.53;;;;;;;11.24;88.66;100540.91;5071918;28;20192;-72
2022/12/03 11:36:14;;;;;;;43.40;23.20;;;;;;;11.25;88.58;100538.06;5072277;28;20285;-74
2022/12/03 11:38:50;;;;;;;27.30;14.03;;;;;;;11.32;88.90;100539.03;5075745;28;20188;-73